sensor_id;sensor_type;location;lat;lon;timestamp;P1;durP1;ratioP1;P2;durP2;ratioP2
2750;SDS011;1383;48.362;10.908;2022-08-02T00:00:09;2.13;;;1.93;;
2750;SDS011;1383;48.362;10.908;2022-08-02T00:02:43;3.10;;;1.53;;
2750;SDS011;1383;48.362;10.908;2022-08-02T00:05:11;1.93;;;1.73;;
2750;SDS011;1383;48.362;10.908;2022-08-02T00:07:38;1.60;;;1.50;;
2750;SDS011;1383;48.362;10.908;2022-08-02T00:10:07;1.67;;;1.50;;
2750;SDS011;1383;48.362;10.908;2022-08-02T00:12:36;1.87;;;1.70;;
2750;SDS011;1383;48.362;10.908;2022-08-02T00:15:05;2.00;;;1.90;;
2750;SDS011;1383;48.362;10.908;2022-08-02T00:17:33;1.70;;;1.47;;
2750;SDS011;1383;48.362;10.908;2022-08-02T00:19:59;2.25;;;1.40;;
2750;SDS011;1383;48.362;10.908;2022-08-02T00:22:27;1.50;;;1.30;;
2750;SDS011;1383;48.362;10.908;2022-08-02T00:24:54;1.87;;;1.77;;
2750;SDS011;1383;48.362;10.908;2022-08-02T00:27:20;2.40;;;1.50;;
2750;SDS011;1383;48.362;10.908;2022-08-02T00:29:47;1.50;;;1.40;;
2750;SDS011;1383;48.362;10.908;2022-08-02T00:32:18;2.03;;;1.40;;
2750;SDS011;1383;48.362;10.908;2022-08-02T00:34:45;4.83;;;1.83;;
2750;SDS011;1383;48.362;10.908;2022-08-02T00:37:12;2.60;;;2.30;;
2750;SDS011;1383;48.362;10.908;2022-08-02T00:39:39;3.53;;;1.83;;
2750;SDS011;1383;48.362;10.908;2022-08-02T00:42:08;2.10;;;1.60;;
2750;SDS011;1383;48.362;10.908;2022-08-02T00:44:36;3.60;;;2.37;;
2750;SDS011;1383;48.362;10.908;2022-08-02T00:47:02;3.97;;;2.30;;
2750;SDS011;1383;48.362;10.908;2022-08-02T00:49:29;1.60;;;1.50;;
2750;SDS011;1383;48.362;10.908;2022-08-02T00:51:58;1.97;;;1.20;;
2750;SDS011;1383;48.362;10.908;2022-08-02T00:54:26;1.57;;;1.47;;
2750;SDS011;1383;48.362;10.908;2022-08-02T00:56:53;3.67;;;1.77;;
2750;SDS011;1383;48.362;10.908;2022-08-02T00:59:19;1.83;;;1.50;;
2750;SDS011;1383;48.362;10.908;2022-08-02T01:01:47;2.73;;;1.63;;
2750;SDS011;1383;48.362;10.908;2022-08-02T01:04:23;2.63;;;1.70;;
2750;SDS011;1383;48.362;10.908;2022-08-02T01:06:57;2.50;;;1.90;;
2750;SDS011;1383;48.362;10.908;2022-08-02T01:09:25;2.10;;;1.73;;
2750;SDS011;1383;48.362;10.908;2022-08-02T01:11:52;2.80;;;2.10;;
2750;SDS011;1383;48.362;10.908;2022-08-02T01:14:19;2.67;;;1.80;;
2750;SDS011;1383;48.362;10.908;2022-08-02T01:19:48;2.60;;;1.97;;
2750;SDS011;1383;48.362;10.908;2022-08-02T01:22:32;2.37;;;1.60;;
2750;SDS011;1383;48.362;10.908;2022-08-02T01:28:25;3.00;;;2.10;;
2750;SDS011;1383;48.362;10.908;2022-08-02T01:31:01;2.90;;;2.40;;
2750;SDS011;1383;48.362;10.908;2022-08-02T01:36:26;2.10;;;1.90;;
2750;SDS011;1383;48.362;10.908;2022-08-02T01:38:57;3.20;;;2.30;;
2750;SDS011;1383;48.362;10.908;2022-08-02T01:41:26;1.80;;;1.70;;
2750;SDS011;1383;48.362;10.908;2022-08-02T01:43:55;2.80;;;2.53;;
2750;SDS011;1383;48.362;10.908;2022-08-02T01:46:25;2.73;;;1.70;;
2750;SDS011;1383;48.362;10.908;2022-08-02T01:48:55;2.90;;;2.60;;
2750;SDS011;1383;48.362;10.908;2022-08-02T01:51:24;3.37;;;2.00;;
2750;SDS011;1383;48.362;10.908;2022-08-02T01:54:13;2.43;;;2.23;;
2750;SDS011;1383;48.362;10.908;2022-08-02T01:56:42;2.30;;;2.13;;
2750;SDS011;1383;48.362;10.908;2022-08-02T01:59:11;2.20;;;2.00;;
2750;SDS011;1383;48.362;10.908;2022-08-02T02:01:41;2.40;;;2.20;;
2750;SDS011;1383;48.362;10.908;2022-08-02T02:04:11;2.40;;;2.20;;
2750;SDS011;1383;48.362;10.908;2022-08-02T02:06:43;1.90;;;1.73;;
2750;SDS011;1383;48.362;10.908;2022-08-02T02:09:11;4.20;;;3.03;;
2750;SDS011;1383;48.362;10.908;2022-08-02T02:11:41;4.33;;;3.23;;
2750;SDS011;1383;48.362;10.908;2022-08-02T02:14:29;2.43;;;2.23;;
2750;SDS011;1383;48.362;10.908;2022-08-02T02:16:58;2.37;;;2.17;;
2750;SDS011;1383;48.362;10.908;2022-08-02T02:19:26;2.33;;;1.90;;
2750;SDS011;1383;48.362;10.908;2022-08-02T02:21:54;5.03;;;2.37;;
2750;SDS011;1383;48.362;10.908;2022-08-02T02:24:22;2.40;;;2.00;;
2750;SDS011;1383;48.362;10.908;2022-08-02T02:26:49;2.80;;;2.07;;
2750;SDS011;1383;48.362;10.908;2022-08-02T02:29:18;3.10;;;2.57;;
2750;SDS011;1383;48.362;10.908;2022-08-02T02:31:49;2.40;;;2.27;;
2750;SDS011;1383;48.362;10.908;2022-08-02T02:34:24;3.60;;;1.80;;
2750;SDS011;1383;48.362;10.908;2022-08-02T02:36:58;2.40;;;2.20;;
2750;SDS011;1383;48.362;10.908;2022-08-02T02:39:28;2.40;;;2.20;;
2750;SDS011;1383;48.362;10.908;2022-08-02T02:41:58;2.80;;;2.23;;
2750;SDS011;1383;48.362;10.908;2022-08-02T02:44:29;3.03;;;2.10;;
2750;SDS011;1383;48.362;10.908;2022-08-02T02:46:57;4.47;;;2.70;;
2750;SDS011;1383;48.362;10.908;2022-08-02T02:49:25;2.17;;;1.90;;
2750;SDS011;1383;48.362;10.908;2022-08-02T02:51:53;4.50;;;2.40;;
2750;SDS011;1383;48.362;10.908;2022-08-02T02:54:22;3.60;;;2.60;;
2750;SDS011;1383;48.362;10.908;2022-08-02T02:56:59;1.93;;;1.80;;
2750;SDS011;1383;48.362;10.908;2022-08-02T02:59:27;2.40;;;2.20;;
2750;SDS011;1383;48.362;10.908;2022-08-02T03:01:55;2.07;;;1.90;;
2750;SDS011;1383;48.362;10.908;2022-08-02T03:04:24;3.13;;;2.50;;
2750;SDS011;1383;48.362;10.908;2022-08-02T03:07:13;2.73;;;2.50;;
2750;SDS011;1383;48.362;10.908;2022-08-02T03:09:40;3.83;;;2.60;;
2750;SDS011;1383;48.362;10.908;2022-08-02T03:12:07;2.93;;;2.63;;
2750;SDS011;1383;48.362;10.908;2022-08-02T03:14:39;3.47;;;2.40;;
2750;SDS011;1383;48.362;10.908;2022-08-02T03:17:09;3.00;;;2.40;;
2750;SDS011;1383;48.362;10.908;2022-08-02T03:19:36;2.67;;;2.47;;
2750;SDS011;1383;48.362;10.908;2022-08-02T03:22:03;2.40;;;2.20;;
2750;SDS011;1383;48.362;10.908;2022-08-02T03:24:29;2.40;;;2.20;;
2750;SDS011;1383;48.362;10.908;2022-08-02T03:26:57;2.67;;;2.47;;
2750;SDS011;1383;48.362;10.908;2022-08-02T03:29:23;5.43;;;2.30;;
2750;SDS011;1383;48.362;10.908;2022-08-02T03:31:50;2.33;;;2.13;;
2750;SDS011;1383;48.362;10.908;2022-08-02T03:34:17;4.10;;;2.63;;
2750;SDS011;1383;48.362;10.908;2022-08-02T03:36:45;2.57;;;2.37;;
2750;SDS011;1383;48.362;10.908;2022-08-02T03:39:15;3.17;;;2.87;;
2750;SDS011;1383;48.362;10.908;2022-08-02T03:41:44;3.30;;;2.40;;
2750;SDS011;1383;48.362;10.908;2022-08-02T03:44:13;3.00;;;2.70;;
2750;SDS011;1383;48.362;10.908;2022-08-02T03:46:41;3.43;;;3.13;;
2750;SDS011;1383;48.362;10.908;2022-08-02T03:49:09;3.07;;;2.40;;
2750;SDS011;1383;48.362;10.908;2022-08-02T03:51:36;3.20;;;2.70;;
2750;SDS011;1383;48.362;10.908;2022-08-02T03:54:03;3.13;;;2.83;;
2750;SDS011;1383;48.362;10.908;2022-08-02T03:56:30;3.90;;;2.53;;
2750;SDS011;1383;48.362;10.908;2022-08-02T03:59:04;4.60;;;3.47;;
2750;SDS011;1383;48.362;10.908;2022-08-02T04:01:32;3.17;;;2.63;;
2750;SDS011;1383;48.362;10.908;2022-08-02T04:03:58;3.10;;;2.50;;
2750;SDS011;1383;48.362;10.908;2022-08-02T04:06:25;2.97;;;2.53;;
2750;SDS011;1383;48.362;10.908;2022-08-02T04:08:53;3.30;;;2.53;;
2750;SDS011;1383;48.362;10.908;2022-08-02T04:11:20;3.17;;;2.60;;
2750;SDS011;1383;48.362;10.908;2022-08-02T04:14:00;2.67;;;2.20;;
2750;SDS011;1383;48.362;10.908;2022-08-02T04:19:30;2.87;;;2.50;;
2750;SDS011;1383;48.362;10.908;2022-08-02T04:22:02;3.90;;;2.70;;
2750;SDS011;1383;48.362;10.908;2022-08-02T04:24:32;3.33;;;2.90;;
2750;SDS011;1383;48.362;10.908;2022-08-02T04:27:03;3.03;;;2.73;;
2750;SDS011;1383;48.362;10.908;2022-08-02T04:29:52;2.60;;;2.40;;
2750;SDS011;1383;48.362;10.908;2022-08-02T04:32:19;3.27;;;2.93;;
2750;SDS011;1383;48.362;10.908;2022-08-02T04:34:47;5.63;;;3.17;;
2750;SDS011;1383;48.362;10.908;2022-08-02T04:37:34;3.67;;;2.93;;
2750;SDS011;1383;48.362;10.908;2022-08-02T04:40:23;4.13;;;2.93;;
2750;SDS011;1383;48.362;10.908;2022-08-02T04:42:50;6.00;;;3.20;;
2750;SDS011;1383;48.362;10.908;2022-08-02T04:45:17;4.20;;;3.37;;
2750;SDS011;1383;48.362;10.908;2022-08-02T04:47:45;2.60;;;2.33;;
2750;SDS011;1383;48.362;10.908;2022-08-02T04:50:29;4.80;;;2.93;;
2750;SDS011;1383;48.362;10.908;2022-08-02T04:52:56;5.20;;;3.07;;
2750;SDS011;1383;48.362;10.908;2022-08-02T04:55:23;3.60;;;3.20;;
2750;SDS011;1383;48.362;10.908;2022-08-02T04:57:54;3.97;;;3.23;;
2750;SDS011;1383;48.362;10.908;2022-08-02T05:00:22;5.07;;;3.30;;
2750;SDS011;1383;48.362;10.908;2022-08-02T05:02:50;4.13;;;3.73;;
2750;SDS011;1383;48.362;10.908;2022-08-02T05:05:20;3.27;;;2.80;;
2750;SDS011;1383;48.362;10.908;2022-08-02T05:07:48;4.57;;;3.40;;
2750;SDS011;1383;48.362;10.908;2022-08-02T05:10:14;5.67;;;3.57;;
2750;SDS011;1383;48.362;10.908;2022-08-02T05:12:41;4.87;;;3.43;;
2750;SDS011;1383;48.362;10.908;2022-08-02T05:15:09;4.13;;;3.67;;
2750;SDS011;1383;48.362;10.908;2022-08-02T05:17:38;4.40;;;3.60;;
2750;SDS011;1383;48.362;10.908;2022-08-02T05:20:13;3.57;;;3.10;;
2750;SDS011;1383;48.362;10.908;2022-08-02T05:22:41;2.53;;;2.33;;
2750;SDS011;1383;48.362;10.908;2022-08-02T05:25:08;2.77;;;2.57;;
2750;SDS011;1383;48.362;10.908;2022-08-02T05:27:35;3.30;;;2.80;;
2750;SDS011;1383;48.362;10.908;2022-08-02T05:30:03;2.60;;;2.40;;
2750;SDS011;1383;48.362;10.908;2022-08-02T05:32:30;2.47;;;2.00;;
2750;SDS011;1383;48.362;10.908;2022-08-02T05:34:59;2.43;;;2.23;;
2750;SDS011;1383;48.362;10.908;2022-08-02T05:37:27;2.70;;;2.50;;
2750;SDS011;1383;48.362;10.908;2022-08-02T05:39:58;3.53;;;3.20;;
2750;SDS011;1383;48.362;10.908;2022-08-02T05:42:26;2.57;;;2.37;;
2750;SDS011;1383;48.362;10.908;2022-08-02T05:44:56;4.10;;;3.37;;
2750;SDS011;1383;48.362;10.908;2022-08-02T05:47:23;3.73;;;3.40;;
2750;SDS011;1383;48.362;10.908;2022-08-02T05:49:51;3.30;;;3.07;;
2750;SDS011;1383;48.362;10.908;2022-08-02T05:52:19;3.17;;;2.90;;
2750;SDS011;1383;48.362;10.908;2022-08-02T06:00:11;3.53;;;2.90;;
2750;SDS011;1383;48.362;10.908;2022-08-02T06:05:16;4.03;;;2.77;;
2750;SDS011;1383;48.362;10.908;2022-08-02T06:07:46;3.50;;;3.20;;
2750;SDS011;1383;48.362;10.908;2022-08-02T06:10:14;3.97;;;3.40;;
2750;SDS011;1383;48.362;10.908;2022-08-02T06:12:47;3.47;;;3.17;;
2750;SDS011;1383;48.362;10.908;2022-08-02T06:15:16;5.20;;;2.90;;
2750;SDS011;1383;48.362;10.908;2022-08-02T06:17:45;2.93;;;2.73;;
2750;SDS011;1383;48.362;10.908;2022-08-02T06:20:13;2.60;;;2.40;;
2750;SDS011;1383;48.362;10.908;2022-08-02T06:22:41;3.10;;;2.80;;
2750;SDS011;1383;48.362;10.908;2022-08-02T06:25:10;4.50;;;3.10;;
2750;SDS011;1383;48.362;10.908;2022-08-02T06:27:59;3.70;;;3.30;;
2750;SDS011;1383;48.362;10.908;2022-08-02T06:30:29;3.80;;;3.40;;
2750;SDS011;1383;48.362;10.908;2022-08-02T06:32:58;3.33;;;3.03;;
2750;SDS011;1383;48.362;10.908;2022-08-02T06:35:39;3.10;;;2.80;;
2750;SDS011;1383;48.362;10.908;2022-08-02T06:38:09;5.00;;;3.37;;
2750;SDS011;1383;48.362;10.908;2022-08-02T06:43:12;3.03;;;2.73;;
2750;SDS011;1383;48.362;10.908;2022-08-02T06:45:52;3.93;;;3.33;;
2750;SDS011;1383;48.362;10.908;2022-08-02T06:48:18;7.23;;;4.00;;
2750;SDS011;1383;48.362;10.908;2022-08-02T06:50:45;8.63;;;4.20;;
2750;SDS011;1383;48.362;10.908;2022-08-02T06:53:12;7.97;;;4.30;;
2750;SDS011;1383;48.362;10.908;2022-08-02T06:55:40;4.23;;;3.30;;
2750;SDS011;1383;48.362;10.908;2022-08-02T06:58:09;3.03;;;2.73;;
2750;SDS011;1383;48.362;10.908;2022-08-02T07:00:37;3.60;;;3.33;;
2750;SDS011;1383;48.362;10.908;2022-08-02T07:03:04;3.37;;;3.07;;
2750;SDS011;1383;48.362;10.908;2022-08-02T07:05:31;3.20;;;2.90;;
2750;SDS011;1383;48.362;10.908;2022-08-02T07:07:57;3.00;;;2.63;;
2750;SDS011;1383;48.362;10.908;2022-08-02T07:10:24;3.03;;;2.43;;
2750;SDS011;1383;48.362;10.908;2022-08-02T07:12:51;4.00;;;3.43;;
2750;SDS011;1383;48.362;10.908;2022-08-02T07:15:21;4.27;;;2.53;;
2750;SDS011;1383;48.362;10.908;2022-08-02T07:17:48;2.83;;;2.63;;
2750;SDS011;1383;48.362;10.908;2022-08-02T07:20:15;3.30;;;3.00;;
2750;SDS011;1383;48.362;10.908;2022-08-02T07:22:41;3.30;;;3.00;;
2750;SDS011;1383;48.362;10.908;2022-08-02T07:25:08;3.20;;;2.90;;
2750;SDS011;1383;48.362;10.908;2022-08-02T07:27:35;3.73;;;3.00;;
2750;SDS011;1383;48.362;10.908;2022-08-02T07:30:03;4.90;;;3.00;;
2750;SDS011;1383;48.362;10.908;2022-08-02T07:32:30;3.53;;;3.23;;
2750;SDS011;1383;48.362;10.908;2022-08-02T07:34:58;3.17;;;2.47;;
2750;SDS011;1383;48.362;10.908;2022-08-02T07:37:32;4.70;;;3.30;;
2750;SDS011;1383;48.362;10.908;2022-08-02T07:40:20;3.20;;;2.77;;
2750;SDS011;1383;48.362;10.908;2022-08-02T07:42:48;3.07;;;2.80;;
2750;SDS011;1383;48.362;10.908;2022-08-02T07:45:17;2.87;;;2.60;;
2750;SDS011;1383;48.362;10.908;2022-08-02T07:47:45;2.80;;;2.50;;
2750;SDS011;1383;48.362;10.908;2022-08-02T07:50:13;3.60;;;2.50;;
2750;SDS011;1383;48.362;10.908;2022-08-02T07:52:42;5.23;;;3.63;;
2750;SDS011;1383;48.362;10.908;2022-08-02T07:55:10;8.07;;;3.70;;
2750;SDS011;1383;48.362;10.908;2022-08-02T07:57:38;2.77;;;2.40;;
2750;SDS011;1383;48.362;10.908;2022-08-02T08:00:12;3.03;;;2.80;;
2750;SDS011;1383;48.362;10.908;2022-08-02T08:02:41;3.20;;;2.90;;
2750;SDS011;1383;48.362;10.908;2022-08-02T08:05:08;2.90;;;2.70;;
2750;SDS011;1383;48.362;10.908;2022-08-02T08:07:35;3.10;;;2.80;;
2750;SDS011;1383;48.362;10.908;2022-08-02T08:10:02;4.97;;;2.87;;
2750;SDS011;1383;48.362;10.908;2022-08-02T08:12:30;2.57;;;2.37;;
2750;SDS011;1383;48.362;10.908;2022-08-02T08:14:57;3.00;;;2.70;;
2750;SDS011;1383;48.362;10.908;2022-08-02T08:17:24;2.53;;;2.30;;
2750;SDS011;1383;48.362;10.908;2022-08-02T08:19:51;4.17;;;2.40;;
2750;SDS011;1383;48.362;10.908;2022-08-02T08:22:19;3.07;;;2.87;;
2750;SDS011;1383;48.362;10.908;2022-08-02T08:24:46;4.90;;;3.10;;
2750;SDS011;1383;48.362;10.908;2022-08-02T08:27:13;2.63;;;2.43;;
2750;SDS011;1383;48.362;10.908;2022-08-02T08:29:41;3.63;;;2.43;;
2750;SDS011;1383;48.362;10.908;2022-08-02T08:32:08;2.47;;;2.27;;
2750;SDS011;1383;48.362;10.908;2022-08-02T08:34:41;2.53;;;2.33;;
2750;SDS011;1383;48.362;10.908;2022-08-02T08:37:08;2.50;;;2.30;;
2750;SDS011;1383;48.362;10.908;2022-08-02T08:39:43;2.63;;;2.30;;
2750;SDS011;1383;48.362;10.908;2022-08-02T08:42:24;2.90;;;2.70;;
2750;SDS011;1383;48.362;10.908;2022-08-02T08:44:51;2.40;;;2.20;;
2750;SDS011;1383;48.362;10.908;2022-08-02T08:47:22;3.00;;;2.63;;
2750;SDS011;1383;48.362;10.908;2022-08-02T08:49:50;2.67;;;2.33;;
2750;SDS011;1383;48.362;10.908;2022-08-02T08:52:20;2.50;;;2.30;;
2750;SDS011;1383;48.362;10.908;2022-08-02T08:54:51;3.00;;;2.70;;
2750;SDS011;1383;48.362;10.908;2022-08-02T08:57:19;2.30;;;2.10;;
2750;SDS011;1383;48.362;10.908;2022-08-02T08:59:46;2.70;;;2.40;;
2750;SDS011;1383;48.362;10.908;2022-08-02T09:02:13;2.10;;;2.00;;
2750;SDS011;1383;48.362;10.908;2022-08-02T09:04:48;4.00;;;3.60;;
2750;SDS011;1383;48.362;10.908;2022-08-02T09:07:20;2.43;;;2.23;;
2750;SDS011;1383;48.362;10.908;2022-08-02T09:09:47;2.30;;;2.00;;
2750;SDS011;1383;48.362;10.908;2022-08-02T09:12:15;2.50;;;2.30;;
2750;SDS011;1383;48.362;10.908;2022-08-02T09:14:42;2.13;;;2.00;;
2750;SDS011;1383;48.362;10.908;2022-08-02T09:17:15;2.57;;;2.00;;
2750;SDS011;1383;48.362;10.908;2022-08-02T09:19:43;2.13;;;2.03;;
2750;SDS011;1383;48.362;10.908;2022-08-02T09:22:12;2.07;;;1.97;;
2750;SDS011;1383;48.362;10.908;2022-08-02T09:27:19;2.80;;;2.60;;
2750;SDS011;1383;48.362;10.908;2022-08-02T09:29:47;2.77;;;2.00;;
2750;SDS011;1383;48.362;10.908;2022-08-02T09:32:45;2.30;;;2.10;;
2750;SDS011;1383;48.362;10.908;2022-08-02T09:35:30;2.23;;;2.03;;
2750;SDS011;1383;48.362;10.908;2022-08-02T09:38:22;3.23;;;2.40;;
2750;SDS011;1383;48.362;10.908;2022-08-02T09:40:51;1.70;;;1.60;;
2750;SDS011;1383;48.362;10.908;2022-08-02T09:43:18;5.77;;;2.17;;
2750;SDS011;1383;48.362;10.908;2022-08-02T09:45:46;2.13;;;2.00;;
2750;SDS011;1383;48.362;10.908;2022-08-02T09:48:12;2.70;;;1.87;;
2750;SDS011;1383;48.362;10.908;2022-08-02T09:50:40;3.93;;;2.23;;
2750;SDS011;1383;48.362;10.908;2022-08-02T09:53:11;1.93;;;1.83;;
2750;SDS011;1383;48.362;10.908;2022-08-02T09:55:39;2.30;;;2.10;;
2750;SDS011;1383;48.362;10.908;2022-08-02T09:58:19;2.17;;;1.97;;
2750;SDS011;1383;48.362;10.908;2022-08-02T10:00:53;3.20;;;2.27;;
2750;SDS011;1383;48.362;10.908;2022-08-02T10:03:22;1.97;;;1.87;;
2750;SDS011;1383;48.362;10.908;2022-08-02T10:05:59;2.53;;;1.97;;
2750;SDS011;1383;48.362;10.908;2022-08-02T10:08:29;1.90;;;1.70;;
2750;SDS011;1383;48.362;10.908;2022-08-02T10:10:58;1.70;;;1.60;;
2750;SDS011;1383;48.362;10.908;2022-08-02T10:15:55;2.50;;;2.30;;
2750;SDS011;1383;48.362;10.908;2022-08-02T10:18:22;2.40;;;2.20;;
2750;SDS011;1383;48.362;10.908;2022-08-02T10:21:05;3.00;;;2.70;;
2750;SDS011;1383;48.362;10.908;2022-08-02T10:23:41;2.47;;;2.27;;
2750;SDS011;1383;48.362;10.908;2022-08-02T10:26:12;1.93;;;1.83;;
2750;SDS011;1383;48.362;10.908;2022-08-02T10:28:41;3.03;;;2.83;;
2750;SDS011;1383;48.362;10.908;2022-08-02T10:31:13;2.70;;;2.50;;
2750;SDS011;1383;48.362;10.908;2022-08-02T10:33:47;3.70;;;2.03;;
2750;SDS011;1383;48.362;10.908;2022-08-02T10:36:18;2.30;;;2.10;;
2750;SDS011;1383;48.362;10.908;2022-08-02T10:38:46;2.30;;;2.10;;
2750;SDS011;1383;48.362;10.908;2022-08-02T10:41:13;2.20;;;2.00;;
2750;SDS011;1383;48.362;10.908;2022-08-02T10:43:43;3.50;;;2.10;;
2750;SDS011;1383;48.362;10.908;2022-08-02T10:46:21;7.70;;;7.10;;
2750;SDS011;1383;48.362;10.908;2022-08-02T10:49:08;2.43;;;2.33;;
2750;SDS011;1383;48.362;10.908;2022-08-02T10:54:33;2.37;;;2.27;;
2750;SDS011;1383;48.362;10.908;2022-08-02T10:57:02;1.80;;;1.70;;
2750;SDS011;1383;48.362;10.908;2022-08-02T10:59:43;1.80;;;1.70;;
2750;SDS011;1383;48.362;10.908;2022-08-02T11:02:11;3.30;;;1.90;;
2750;SDS011;1383;48.362;10.908;2022-08-02T11:07:12;2.40;;;2.20;;
2750;SDS011;1383;48.362;10.908;2022-08-02T11:09:44;2.00;;;1.90;;
2750;SDS011;1383;48.362;10.908;2022-08-02T11:12:14;1.50;;;1.40;;
2750;SDS011;1383;48.362;10.908;2022-08-02T11:14:56;2.27;;;1.70;;
2750;SDS011;1383;48.362;10.908;2022-08-02T11:17:27;2.20;;;2.00;;
2750;SDS011;1383;48.362;10.908;2022-08-02T11:20:14;2.60;;;2.40;;
2750;SDS011;1383;48.362;10.908;2022-08-02T11:22:43;1.90;;;1.50;;
2750;SDS011;1383;48.362;10.908;2022-08-02T11:27:57;2.13;;;1.97;;
2750;SDS011;1383;48.362;10.908;2022-08-02T11:30:25;1.80;;;1.70;;
2750;SDS011;1383;48.362;10.908;2022-08-02T11:32:56;1.47;;;1.37;;
2750;SDS011;1383;48.362;10.908;2022-08-02T11:35:31;1.30;;;1.20;;
2750;SDS011;1383;48.362;10.908;2022-08-02T11:38:16;1.60;;;1.50;;
2750;SDS011;1383;48.362;10.908;2022-08-02T11:40:46;1.67;;;1.57;;
2750;SDS011;1383;48.362;10.908;2022-08-02T11:43:23;1.80;;;1.70;;
2750;SDS011;1383;48.362;10.908;2022-08-02T11:45:55;2.90;;;2.10;;
2750;SDS011;1383;48.362;10.908;2022-08-02T11:48:29;1.40;;;1.30;;
2750;SDS011;1383;48.362;10.908;2022-08-02T11:51:08;1.37;;;1.27;;
2750;SDS011;1383;48.362;10.908;2022-08-02T11:53:43;1.40;;;1.30;;
2750;SDS011;1383;48.362;10.908;2022-08-02T11:56:11;1.37;;;1.27;;
2750;SDS011;1383;48.362;10.908;2022-08-02T12:01:34;1.90;;;1.80;;
2750;SDS011;1383;48.362;10.908;2022-08-02T12:04:14;1.60;;;1.50;;
2750;SDS011;1383;48.362;10.908;2022-08-02T12:06:42;2.40;;;1.83;;
2750;SDS011;1383;48.362;10.908;2022-08-02T12:09:10;2.17;;;1.97;;
2750;SDS011;1383;48.362;10.908;2022-08-02T12:11:46;2.43;;;2.10;;
2750;SDS011;1383;48.362;10.908;2022-08-02T12:14:15;1.80;;;1.70;;
2750;SDS011;1383;48.362;10.908;2022-08-02T12:16:42;2.83;;;1.80;;
2750;SDS011;1383;48.362;10.908;2022-08-02T12:19:27;2.10;;;1.90;;
2750;SDS011;1383;48.362;10.908;2022-08-02T12:24:49;1.73;;;1.63;;
2750;SDS011;1383;48.362;10.908;2022-08-02T12:27:27;1.57;;;1.47;;
2750;SDS011;1383;48.362;10.908;2022-08-02T12:29:59;1.80;;;1.70;;
2750;SDS011;1383;48.362;10.908;2022-08-02T12:32:28;1.53;;;1.43;;
2750;SDS011;1383;48.362;10.908;2022-08-02T12:37:33;1.90;;;1.80;;
2750;SDS011;1383;48.362;10.908;2022-08-02T12:40:17;1.90;;;1.80;;
2750;SDS011;1383;48.362;10.908;2022-08-02T12:42:51;1.83;;;1.73;;
2750;SDS011;1383;48.362;10.908;2022-08-02T12:45:24;2.27;;;2.07;;
2750;SDS011;1383;48.362;10.908;2022-08-02T12:48:07;1.50;;;1.40;;
2750;SDS011;1383;48.362;10.908;2022-08-02T12:50:34;1.87;;;1.77;;
2750;SDS011;1383;48.362;10.908;2022-08-02T12:53:08;2.00;;;1.90;;
2750;SDS011;1383;48.362;10.908;2022-08-02T12:55:50;2.63;;;2.07;;
2750;SDS011;1383;48.362;10.908;2022-08-02T12:58:27;2.37;;;2.17;;
2750;SDS011;1383;48.362;10.908;2022-08-02T13:00:56;3.10;;;1.57;;
2750;SDS011;1383;48.362;10.908;2022-08-02T13:03:25;1.77;;;1.63;;
2750;SDS011;1383;48.362;10.908;2022-08-02T13:06:13;1.70;;;1.60;;
2750;SDS011;1383;48.362;10.908;2022-08-02T13:09:01;3.10;;;2.13;;
2750;SDS011;1383;48.362;10.908;2022-08-02T13:11:37;1.83;;;1.53;;
2750;SDS011;1383;48.362;10.908;2022-08-02T13:14:08;1.57;;;1.43;;
2750;SDS011;1383;48.362;10.908;2022-08-02T13:16:36;1.50;;;1.40;;
2750;SDS011;1383;48.362;10.908;2022-08-02T13:19:02;1.40;;;1.30;;
2750;SDS011;1383;48.362;10.908;2022-08-02T13:21:29;2.10;;;1.90;;
2750;SDS011;1383;48.362;10.908;2022-08-02T13:24:16;1.73;;;1.47;;
2750;SDS011;1383;48.362;10.908;2022-08-02T13:27:03;2.40;;;1.60;;
2750;SDS011;1383;48.362;10.908;2022-08-02T13:29:34;1.50;;;1.40;;
2750;SDS011;1383;48.362;10.908;2022-08-02T13:32:02;1.80;;;1.70;;
2750;SDS011;1383;48.362;10.908;2022-08-02T13:34:29;2.77;;;1.63;;
2750;SDS011;1383;48.362;10.908;2022-08-02T13:36:56;2.67;;;1.80;;
2750;SDS011;1383;48.362;10.908;2022-08-02T13:39:23;2.63;;;1.70;;
2750;SDS011;1383;48.362;10.908;2022-08-02T13:41:50;4.00;;;1.67;;
2750;SDS011;1383;48.362;10.908;2022-08-02T13:44:17;3.20;;;2.20;;
2750;SDS011;1383;48.362;10.908;2022-08-02T13:46:44;3.90;;;3.13;;
2750;SDS011;1383;48.362;10.908;2022-08-02T13:49:12;1.53;;;1.43;;
2750;SDS011;1383;48.362;10.908;2022-08-02T13:51:45;1.80;;;1.70;;
2750;SDS011;1383;48.362;10.908;2022-08-02T13:54:13;2.10;;;1.57;;
2750;SDS011;1383;48.362;10.908;2022-08-02T13:56:40;1.73;;;1.20;;
2750;SDS011;1383;48.362;10.908;2022-08-02T13:59:07;1.97;;;1.80;;
2750;SDS011;1383;48.362;10.908;2022-08-02T14:01:54;3.00;;;1.80;;
2750;SDS011;1383;48.362;10.908;2022-08-02T14:04:22;1.57;;;1.47;;
2750;SDS011;1383;48.362;10.908;2022-08-02T14:06:50;1.77;;;1.67;;
2750;SDS011;1383;48.362;10.908;2022-08-02T14:09:17;1.80;;;1.70;;
2750;SDS011;1383;48.362;10.908;2022-08-02T14:11:44;1.60;;;1.50;;
2750;SDS011;1383;48.362;10.908;2022-08-02T14:14:11;1.47;;;1.37;;
2750;SDS011;1383;48.362;10.908;2022-08-02T14:16:42;2.40;;;1.70;;
2750;SDS011;1383;48.362;10.908;2022-08-02T14:19:10;1.77;;;1.67;;
2750;SDS011;1383;48.362;10.908;2022-08-02T14:21:42;1.93;;;1.30;;
2750;SDS011;1383;48.362;10.908;2022-08-02T14:24:13;2.00;;;1.80;;
2750;SDS011;1383;48.362;10.908;2022-08-02T14:26:40;2.30;;;1.90;;
2750;SDS011;1383;48.362;10.908;2022-08-02T14:29:07;2.97;;;2.60;;
2750;SDS011;1383;48.362;10.908;2022-08-02T14:31:34;2.60;;;2.20;;
2750;SDS011;1383;48.362;10.908;2022-08-02T14:34:08;2.70;;;1.50;;
2750;SDS011;1383;48.362;10.908;2022-08-02T14:36:35;1.67;;;1.40;;
2750;SDS011;1383;48.362;10.908;2022-08-02T14:39:03;1.50;;;1.40;;
2750;SDS011;1383;48.362;10.908;2022-08-02T14:41:30;1.37;;;1.20;;
2750;SDS011;1383;48.362;10.908;2022-08-02T14:44:19;1.67;;;1.57;;
2750;SDS011;1383;48.362;10.908;2022-08-02T14:46:45;2.10;;;2.00;;
2750;SDS011;1383;48.362;10.908;2022-08-02T14:49:16;2.30;;;1.30;;
2750;SDS011;1383;48.362;10.908;2022-08-02T14:51:52;2.57;;;2.37;;
2750;SDS011;1383;48.362;10.908;2022-08-02T14:54:19;1.80;;;1.70;;
2750;SDS011;1383;48.362;10.908;2022-08-02T14:56:56;2.17;;;1.97;;
2750;SDS011;1383;48.362;10.908;2022-08-02T14:59:24;3.43;;;3.13;;
2750;SDS011;1383;48.362;10.908;2022-08-02T15:01:52;2.57;;;1.63;;
2750;SDS011;1383;48.362;10.908;2022-08-02T15:04:19;1.40;;;1.30;;
2750;SDS011;1383;48.362;10.908;2022-08-02T15:06:46;3.80;;;1.20;;
2750;SDS011;1383;48.362;10.908;2022-08-02T15:09:13;1.67;;;1.57;;
2750;SDS011;1383;48.362;10.908;2022-08-02T15:11:39;1.90;;;1.80;;
2750;SDS011;1383;48.362;10.908;2022-08-02T15:14:14;1.73;;;1.63;;
2750;SDS011;1383;48.362;10.908;2022-08-02T15:16:50;1.50;;;1.40;;
2750;SDS011;1383;48.362;10.908;2022-08-02T15:19:23;2.60;;;1.87;;
2750;SDS011;1383;48.362;10.908;2022-08-02T15:22:11;1.90;;;1.80;;
2750;SDS011;1383;48.362;10.908;2022-08-02T15:24:42;2.37;;;2.20;;
2750;SDS011;1383;48.362;10.908;2022-08-02T15:27:09;2.73;;;2.13;;
2750;SDS011;1383;48.362;10.908;2022-08-02T15:29:39;2.40;;;1.37;;
2750;SDS011;1383;48.362;10.908;2022-08-02T15:32:06;1.80;;;1.70;;
2750;SDS011;1383;48.362;10.908;2022-08-02T15:34:33;6.90;;;2.30;;
2750;SDS011;1383;48.362;10.908;2022-08-02T15:37:00;1.63;;;1.50;;
2750;SDS011;1383;48.362;10.908;2022-08-02T15:39:27;1.50;;;1.40;;
2750;SDS011;1383;48.362;10.908;2022-08-02T15:41:54;1.47;;;1.37;;
2750;SDS011;1383;48.362;10.908;2022-08-02T15:44:21;1.40;;;1.30;;
2750;SDS011;1383;48.362;10.908;2022-08-02T15:46:49;2.00;;;1.60;;
2750;SDS011;1383;48.362;10.908;2022-08-02T15:49:16;1.20;;;1.10;;
2750;SDS011;1383;48.362;10.908;2022-08-02T15:51:45;2.20;;;1.17;;
2750;SDS011;1383;48.362;10.908;2022-08-02T15:54:12;1.60;;;1.50;;
2750;SDS011;1383;48.362;10.908;2022-08-02T15:56:39;1.30;;;1.20;;
2750;SDS011;1383;48.362;10.908;2022-08-02T15:59:06;1.77;;;1.67;;
2750;SDS011;1383;48.362;10.908;2022-08-02T16:01:33;1.50;;;1.40;;
2750;SDS011;1383;48.362;10.908;2022-08-02T16:04:04;1.63;;;1.53;;